sensor_id;sensor_type;location;lat;lon;timestamp;temperature;humidity
21590;DHT22;10957;50.968;6.828;2022-07-05T00:04:51;14.80;99.90
21590;DHT22;10957;50.968;6.828;2022-07-05T00:09:54;14.90;99.90
21590;DHT22;10957;50.968;6.828;2022-07-05T00:14:56;14.90;99.90
21590;DHT22;10957;50.968;6.828;2022-07-05T00:19:56;14.70;99.90
21590;DHT22;10957;50.968;6.828;2022-07-05T00:24:57;14.70;99.90
21590;DHT22;10957;50.968;6.828;2022-07-05T00:29:58;14.80;99.90
21590;DHT22;10957;50.968;6.828;2022-07-05T00:34:59;14.60;99.90
21590;DHT22;10957;50.968;6.828;2022-07-05T00:40:00;14.60;99.90
21590;DHT22;10957;50.968;6.828;2022-07-05T00:45:04;14.60;99.90
21590;DHT22;10957;50.968;6.828;2022-07-05T00:50:06;14.60;99.90
21590;DHT22;10957;50.968;6.828;2022-07-05T00:55:08;14.60;99.90
21590;DHT22;10957;50.968;6.828;2022-07-05T01:00:09;14.60;99.90
21590;DHT22;10957;50.968;6.828;2022-07-05T01:05:10;14.50;99.90
21590;DHT22;10957;50.968;6.828;2022-07-05T01:10:11;14.30;99.90
21590;DHT22;10957;50.968;6.828;2022-07-05T01:15:13;14.50;99.90
21590;DHT22;10957;50.968;6.828;2022-07-05T01:20:14;14.40;99.90
21590;DHT22;10957;50.968;6.828;2022-07-05T01:25:15;14.30;99.90
21590;DHT22;10957;50.968;6.828;2022-07-05T01:30:17;14.40;99.90
21590;DHT22;10957;50.968;6.828;2022-07-05T01:35:19;14.00;99.90
21590;DHT22;10957;50.968;6.828;2022-07-05T01:40:23;14.00;99.90
21590;DHT22;10957;50.968;6.828;2022-07-05T01:45:24;14.10;99.90
21590;DHT22;10957;50.968;6.828;2022-07-05T01:50:47;13.90;99.90
21590;DHT22;10957;50.968;6.828;2022-07-05T01:55:49;14.00;99.90
21590;DHT22;10957;50.968;6.828;2022-07-05T02:00:55;14.00;99.90
21590;DHT22;10957;50.968;6.828;2022-07-05T02:05:56;13.80;99.90
21590;DHT22;10957;50.968;6.828;2022-07-05T02:10:57;13.80;99.90
21590;DHT22;10957;50.968;6.828;2022-07-05T02:15:58;13.70;99.90
21590;DHT22;10957;50.968;6.828;2022-07-05T02:20:59;13.70;99.90
21590;DHT22;10957;50.968;6.828;2022-07-05T02:26:00;14.00;99.90
21590;DHT22;10957;50.968;6.828;2022-07-05T02:31:02;14.00;99.90
21590;DHT22;10957;50.968;6.828;2022-07-05T02:36:11;14.30;99.90
21590;DHT22;10957;50.968;6.828;2022-07-05T02:41:13;14.00;99.90
21590;DHT22;10957;50.968;6.828;2022-07-05T02:46:18;14.00;99.90
21590;DHT22;10957;50.968;6.828;2022-07-05T02:51:19;14.10;99.90
21590;DHT22;10957;50.968;6.828;2022-07-05T02:56:23;14.00;99.90
21590;DHT22;10957;50.968;6.828;2022-07-05T03:01:24;13.90;99.90
21590;DHT22;10957;50.968;6.828;2022-07-05T03:06:26;13.90;99.90
21590;DHT22;10957;50.968;6.828;2022-07-05T03:11:27;13.90;99.90
21590;DHT22;10957;50.968;6.828;2022-07-05T03:16:29;14.20;99.90
21590;DHT22;10957;50.968;6.828;2022-07-05T03:21:30;14.10;99.90
21590;DHT22;10957;50.968;6.828;2022-07-05T03:26:31;14.00;99.90
21590;DHT22;10957;50.968;6.828;2022-07-05T03:31:32;13.90;99.90
21590;DHT22;10957;50.968;6.828;2022-07-05T03:36:36;13.90;99.90
21590;DHT22;10957;50.968;6.828;2022-07-05T03:41:41;13.80;99.90
21590;DHT22;10957;50.968;6.828;2022-07-05T03:46:44;13.60;99.90
21590;DHT22;10957;50.968;6.828;2022-07-05T03:51:45;13.50;99.90
21590;DHT22;10957;50.968;6.828;2022-07-05T03:56:46;13.60;99.90
21590;DHT22;10957;50.968;6.828;2022-07-05T04:01:49;13.70;99.90
21590;DHT22;10957;50.968;6.828;2022-07-05T04:06:51;13.90;99.90
21590;DHT22;10957;50.968;6.828;2022-07-05T04:11:53;14.10;99.90
21590;DHT22;10957;50.968;6.828;2022-07-05T04:16:54;14.40;99.90
21590;DHT22;10957;50.968;6.828;2022-07-05T04:21:55;14.20;99.90
21590;DHT22;10957;50.968;6.828;2022-07-05T04:26:57;14.40;99.90
21590;DHT22;10957;50.968;6.828;2022-07-05T04:31:58;14.30;99.90
21590;DHT22;10957;50.968;6.828;2022-07-05T04:36:59;14.60;99.90
21590;DHT22;10957;50.968;6.828;2022-07-05T04:42:01;14.50;99.90
21590;DHT22;10957;50.968;6.828;2022-07-05T04:47:02;14.50;99.90
21590;DHT22;10957;50.968;6.828;2022-07-05T04:52:04;14.70;99.90
21590;DHT22;10957;50.968;6.828;2022-07-05T04:57:07;14.80;99.90
21590;DHT22;10957;50.968;6.828;2022-07-05T05:02:08;14.90;99.90
21590;DHT22;10957;50.968;6.828;2022-07-05T05:07:09;15.20;99.90
21590;DHT22;10957;50.968;6.828;2022-07-05T05:12:10;15.10;99.90
21590;DHT22;10957;50.968;6.828;2022-07-05T05:17:11;15.20;99.90
21590;DHT22;10957;50.968;6.828;2022-07-05T05:22:12;15.50;99.90
21590;DHT22;10957;50.968;6.828;2022-07-05T05:27:13;15.60;99.90
21590;DHT22;10957;50.968;6.828;2022-07-05T05:32:13;15.90;99.90
21590;DHT22;10957;50.968;6.828;2022-07-05T05:37:14;15.90;99.90
21590;DHT22;10957;50.968;6.828;2022-07-05T05:42:15;16.10;99.90
21590;DHT22;10957;50.968;6.828;2022-07-05T05:47:16;16.40;99.90
21590;DHT22;10957;50.968;6.828;2022-07-05T05:52:17;16.70;99.90
21590;DHT22;10957;50.968;6.828;2022-07-05T05:57:18;16.90;94.10
21590;DHT22;10957;50.968;6.828;2022-07-05T06:02:18;17.10;90.00
21590;DHT22;10957;50.968;6.828;2022-07-05T06:07:19;17.30;99.90
21590;DHT22;10957;50.968;6.828;2022-07-05T06:12:20;17.40;74.60
21590;DHT22;10957;50.968;6.828;2022-07-05T06:17:21;17.80;84.30
21590;DHT22;10957;50.968;6.828;2022-07-05T06:22:22;18.40;80.90
21590;DHT22;10957;50.968;6.828;2022-07-05T06:27:22;18.80;33.90
21590;DHT22;10957;50.968;6.828;2022-07-05T06:32:24;19.10;22.90
21590;DHT22;10957;50.968;6.828;2022-07-05T06:37:46;19.60;20.30
21590;DHT22;10957;50.968;6.828;2022-07-05T06:42:48;20.30;15.20
21590;DHT22;10957;50.968;6.828;2022-07-05T06:48:04;20.90;11.50
21590;DHT22;10957;50.968;6.828;2022-07-05T06:53:05;21.30;8.10
21590;DHT22;10957;50.968;6.828;2022-07-05T06:58:08;21.80;1.00
21590;DHT22;10957;50.968;6.828;2022-07-05T07:03:09;22.30;1.00
21590;DHT22;10957;50.968;6.828;2022-07-05T07:08:10;22.00;1.00
21590;DHT22;10957;50.968;6.828;2022-07-05T07:13:29;22.20;1.00
21590;DHT22;10957;50.968;6.828;2022-07-05T07:18:30;22.50;1.00
21590;DHT22;10957;50.968;6.828;2022-07-05T07:23:33;23.10;1.00
21590;DHT22;10957;50.968;6.828;2022-07-05T07:28:33;23.50;1.00
21590;DHT22;10957;50.968;6.828;2022-07-05T07:33:34;23.60;1.00
21590;DHT22;10957;50.968;6.828;2022-07-05T07:38:35;23.50;1.00
21590;DHT22;10957;50.968;6.828;2022-07-05T07:43:36;23.70;1.00
21590;DHT22;10957;50.968;6.828;2022-07-05T07:48:36;24.10;1.00
21590;DHT22;10957;50.968;6.828;2022-07-05T07:53:37;23.80;1.00
21590;DHT22;10957;50.968;6.828;2022-07-05T07:58:38;24.50;1.00
21590;DHT22;10957;50.968;6.828;2022-07-05T08:03:40;24.50;1.00
21590;DHT22;10957;50.968;6.828;2022-07-05T08:08:43;24.70;1.00
21590;DHT22;10957;50.968;6.828;2022-07-05T08:13:45;25.10;1.00
21590;DHT22;10957;50.968;6.828;2022-07-05T08:18:45;25.00;1.00
21590;DHT22;10957;50.968;6.828;2022-07-05T08:24:10;25.80;1.00
21590;DHT22;10957;50.968;6.828;2022-07-05T08:29:12;24.80;1.00
21590;DHT22;10957;50.968;6.828;2022-07-05T08:34:13;25.10;1.00
21590;DHT22;10957;50.968;6.828;2022-07-05T08:39:15;26.00;1.00
21590;DHT22;10957;50.968;6.828;2022-07-05T08:44:18;25.10;1.00
21590;DHT22;10957;50.968;6.828;2022-07-05T08:49:25;23.90;1.00
21590;DHT22;10957;50.968;6.828;2022-07-05T08:54:26;24.70;1.00
21590;DHT22;10957;50.968;6.828;2022-07-05T08:59:27;22.50;1.00
21590;DHT22;10957;50.968;6.828;2022-07-05T09:04:31;25.00;1.00
21590;DHT22;10957;50.968;6.828;2022-07-05T09:09:38;24.80;1.00
21590;DHT22;10957;50.968;6.828;2022-07-05T09:14:43;25.20;1.00
21590;DHT22;10957;50.968;6.828;2022-07-05T09:19:52;24.70;1.00
21590;DHT22;10957;50.968;6.828;2022-07-05T09:30:35;23.00;1.00
21590;DHT22;10957;50.968;6.828;2022-07-05T09:35:43;24.80;1.00
21590;DHT22;10957;50.968;6.828;2022-07-05T09:40:48;24.10;1.00
21590;DHT22;10957;50.968;6.828;2022-07-05T09:51:09;24.80;1.00
21590;DHT22;10957;50.968;6.828;2022-07-05T09:56:10;24.80;1.00
21590;DHT22;10957;50.968;6.828;2022-07-05T10:01:31;23.70;1.00
21590;DHT22;10957;50.968;6.828;2022-07-05T10:06:37;24.90;1.00
21590;DHT22;10957;50.968;6.828;2022-07-05T10:11:41;24.10;1.00
21590;DHT22;10957;50.968;6.828;2022-07-05T10:16:46;24.00;1.00
21590;DHT22;10957;50.968;6.828;2022-07-05T10:21:48;23.50;1.00
21590;DHT22;10957;50.968;6.828;2022-07-05T10:26:50;23.30;1.00
21590;DHT22;10957;50.968;6.828;2022-07-05T10:31:51;22.90;1.00
21590;DHT22;10957;50.968;6.828;2022-07-05T10:36:52;22.90;1.00
21590;DHT22;10957;50.968;6.828;2022-07-05T10:41:54;23.70;1.00
21590;DHT22;10957;50.968;6.828;2022-07-05T10:47:07;24.80;1.00
21590;DHT22;10957;50.968;6.828;2022-07-05T10:52:22;24.70;1.00
21590;DHT22;10957;50.968;6.828;2022-07-05T10:57:24;24.80;1.00
21590;DHT22;10957;50.968;6.828;2022-07-05T11:02:25;23.80;1.00
21590;DHT22;10957;50.968;6.828;2022-07-05T11:08:04;23.90;1.00
21590;DHT22;10957;50.968;6.828;2022-07-05T11:13:36;23.60;1.00
21590;DHT22;10957;50.968;6.828;2022-07-05T11:18:38;23.20;1.00
21590;DHT22;10957;50.968;6.828;2022-07-05T11:23:39;23.50;1.00
21590;DHT22;10957;50.968;6.828;2022-07-05T11:33:44;24.40;1.00
21590;DHT22;10957;50.968;6.828;2022-07-05T11:39:11;23.90;1.00
21590;DHT22;10957;50.968;6.828;2022-07-05T11:44:17;23.60;1.00
21590;DHT22;10957;50.968;6.828;2022-07-05T11:49:22;23.10;1.00
21590;DHT22;10957;50.968;6.828;2022-07-05T11:54:33;23.10;1.00
21590;DHT22;10957;50.968;6.828;2022-07-05T11:59:34;24.00;1.00
21590;DHT22;10957;50.968;6.828;2022-07-05T12:04:36;24.10;1.00
21590;DHT22;10957;50.968;6.828;2022-07-05T12:09:36;24.50;1.00
21590;DHT22;10957;50.968;6.828;2022-07-05T12:14:56;24.40;1.00
21590;DHT22;10957;50.968;6.828;2022-07-05T12:19:56;23.80;1.00
21590;DHT22;10957;50.968;6.828;2022-07-05T12:24:58;23.90;1.00
21590;DHT22;10957;50.968;6.828;2022-07-05T12:29:59;24.40;1.00
21590;DHT22;10957;50.968;6.828;2022-07-05T12:35:03;24.70;1.00
21590;DHT22;10957;50.968;6.828;2022-07-05T12:40:06;24.70;1.00
21590;DHT22;10957;50.968;6.828;2022-07-05T12:50:12;24.70;1.00
21590;DHT22;10957;50.968;6.828;2022-07-05T12:55:12;25.60;1.00
21590;DHT22;10957;50.968;6.828;2022-07-05T13:00:32;25.10;1.00
21590;DHT22;10957;50.968;6.828;2022-07-05T13:05:32;24.80;1.00
21590;DHT22;10957;50.968;6.828;2022-07-05T13:10:33;25.10;1.00
21590;DHT22;10957;50.968;6.828;2022-07-05T13:15:36;25.40;1.00
21590;DHT22;10957;50.968;6.828;2022-07-05T13:20:38;25.20;1.00
21590;DHT22;10957;50.968;6.828;2022-07-05T13:25:39;25.70;1.00
21590;DHT22;10957;50.968;6.828;2022-07-05T13:30:39;25.30;1.00
21590;DHT22;10957;50.968;6.828;2022-07-05T13:35:40;25.50;1.00
21590;DHT22;10957;50.968;6.828;2022-07-05T13:40:41;24.60;1.00
21590;DHT22;10957;50.968;6.828;2022-07-05T13:45:41;24.40;1.00
21590;DHT22;10957;50.968;6.828;2022-07-05T13:50:42;24.80;1.00
21590;DHT22;10957;50.968;6.828;2022-07-05T13:55:43;25.60;1.00
21590;DHT22;10957;50.968;6.828;2022-07-05T14:00:43;25.50;1.00
21590;DHT22;10957;50.968;6.828;2022-07-05T14:05:44;25.60;1.00
21590;DHT22;10957;50.968;6.828;2022-07-05T14:10:45;25.40;1.00
21590;DHT22;10957;50.968;6.828;2022-07-05T14:15:49;25.10;1.00
21590;DHT22;10957;50.968;6.828;2022-07-05T14:20:50;24.90;1.00
21590;DHT22;10957;50.968;6.828;2022-07-05T14:25:51;24.10;1.00
21590;DHT22;10957;50.968;6.828;2022-07-05T14:30:52;24.70;1.00
21590;DHT22;10957;50.968;6.828;2022-07-05T14:35:53;24.90;1.00
21590;DHT22;10957;50.968;6.828;2022-07-05T14:40:53;25.10;1.00
21590;DHT22;10957;50.968;6.828;2022-07-05T14:45:55;25.60;1.00
21590;DHT22;10957;50.968;6.828;2022-07-05T14:50:57;25.80;1.00
21590;DHT22;10957;50.968;6.828;2022-07-05T14:55:57;25.20;1.00
21590;DHT22;10957;50.968;6.828;2022-07-05T15:00:58;25.30;1.00
21590;DHT22;10957;50.968;6.828;2022-07-05T15:06:00;26.10;1.00
21590;DHT22;10957;50.968;6.828;2022-07-05T15:11:04;25.90;1.00
21590;DHT22;10957;50.968;6.828;2022-07-05T15:16:05;26.30;1.00
21590;DHT22;10957;50.968;6.828;2022-07-05T15:21:06;25.80;1.00
21590;DHT22;10957;50.968;6.828;2022-07-05T15:26:08;25.80;1.00
21590;DHT22;10957;50.968;6.828;2022-07-05T15:31:09;25.90;1.00
21590;DHT22;10957;50.968;6.828;2022-07-05T15:36:09;26.10;1.00
21590;DHT22;10957;50.968;6.828;2022-07-05T15:41:10;25.80;1.00
21590;DHT22;10957;50.968;6.828;2022-07-05T15:46:11;24.70;1.00
21590;DHT22;10957;50.968;6.828;2022-07-05T15:51:12;25.10;1.00
21590;DHT22;10957;50.968;6.828;2022-07-05T15:56:13;24.80;1.00
21590;DHT22;10957;50.968;6.828;2022-07-05T16:01:14;24.20;1.00
21590;DHT22;10957;50.968;6.828;2022-07-05T16:06:14;24.50;1.00
21590;DHT22;10957;50.968;6.828;2022-07-05T16:11:15;24.30;1.00
21590;DHT22;10957;50.968;6.828;2022-07-05T16:16:16;24.10;1.00
21590;DHT22;10957;50.968;6.828;2022-07-05T16:21:18;23.70;1.00
21590;DHT22;10957;50.968;6.828;2022-07-05T16:26:20;23.70;1.00
21590;DHT22;10957;50.968;6.828;2022-07-05T16:31:24;24.10;1.00
21590;DHT22;10957;50.968;6.828;2022-07-05T16:36:25;23.70;1.00
21590;DHT22;10957;50.968;6.828;2022-07-05T16:41:25;22.90;1.00
21590;DHT22;10957;50.968;6.828;2022-07-05T16:46:26;22.90;1.00
21590;DHT22;10957;50.968;6.828;2022-07-05T16:51:27;22.90;1.00
21590;DHT22;10957;50.968;6.828;2022-07-05T16:56:28;22.80;1.00
21590;DHT22;10957;50.968;6.828;2022-07-05T17:01:29;22.60;1.00
21590;DHT22;10957;50.968;6.828;2022-07-05T17:06:30;22.60;1.00
21590;DHT22;10957;50.968;6.828;2022-07-05T17:11:30;22.30;1.00
21590;DHT22;10957;50.968;6.828;2022-07-05T17:16:32;22.30;1.00
21590;DHT22;10957;50.968;6.828;2022-07-05T17:21:33;22.20;1.00
21590;DHT22;10957;50.968;6.828;2022-07-05T17:26:36;22.00;1.00
21590;DHT22;10957;50.968;6.828;2022-07-05T17:31:36;22.30;1.00
21590;DHT22;10957;50.968;6.828;2022-07-05T17:36:37;22.10;1.00
21590;DHT22;10957;50.968;6.828;2022-07-05T17:41:38;22.20;1.00
21590;DHT22;10957;50.968;6.828;2022-07-05T17:46:38;22.00;1.00
21590;DHT22;10957;50.968;6.828;2022-07-05T17:51:39;21.60;1.00
21590;DHT22;10957;50.968;6.828;2022-07-05T17:56:41;21.50;1.00
21590;DHT22;10957;50.968;6.828;2022-07-05T18:01:45;21.30;1.00
21590;DHT22;10957;50.968;6.828;2022-07-05T18:06:46;21.20;1.00
21590;DHT22;10957;50.968;6.828;2022-07-05T18:11:47;21.20;1.00
21590;DHT22;10957;50.968;6.828;2022-07-05T18:16:47;20.90;1.00
21590;DHT22;10957;50.968;6.828;2022-07-05T18:21:48;20.70;1.00
21590;DHT22;10957;50.968;6.828;2022-07-05T18:26:49;20.40;1.00
21590;DHT22;10957;50.968;6.828;2022-07-05T18:31:49;20.30;1.00
21590;DHT22;10957;50.968;6.828;2022-07-05T18:36:50;20.30;1.00
21590;DHT22;10957;50.968;6.828;2022-07-05T18:41:51;20.30;1.00
21590;DHT22;10957;50.968;6.828;2022-07-05T18:46:52;20.20;1.00
21590;DHT22;10957;50.968;6.828;2022-07-05T18:51:53;20.20;1.00
21590;DHT22;10957;50.968;6.828;2022-07-05T18:56:53;20.10;1.00
21590;DHT22;10957;50.968;6.828;2022-07-05T19:01:55;20.10;1.00
21590;DHT22;10957;50.968;6.828;2022-07-05T19:06:56;19.90;1.00
21590;DHT22;10957;50.968;6.828;2022-07-05T19:12:15;19.70;1.00
21590;DHT22;10957;50.968;6.828;2022-07-05T19:17:35;19.50;1.00
21590;DHT22;10957;50.968;6.828;2022-07-05T19:22:36;19.30;1.00
21590;DHT22;10957;50.968;6.828;2022-07-05T19:27:37;19.10;1.00
21590;DHT22;10957;50.968;6.828;2022-07-05T19:32:37;19.10;1.00
21590;DHT22;10957;50.968;6.828;2022-07-05T19:37:38;18.90;1.00
21590;DHT22;10957;50.968;6.828;2022-07-05T19:42:39;18.90;1.00
21590;DHT22;10957;50.968;6.828;2022-07-05T19:47:40;18.80;1.00
21590;DHT22;10957;50.968;6.828;2022-07-05T19:52:40;18.70;1.00
21590;DHT22;10957;50.968;6.828;2022-07-05T19:57:41;18.60;1.00
21590;DHT22;10957;50.968;6.828;2022-07-05T20:08:14;18.50;1.00
21590;DHT22;10957;50.968;6.828;2022-07-05T20:13:15;18.50;1.00
21590;DHT22;10957;50.968;6.828;2022-07-05T20:18:15;18.40;1.00
21590;DHT22;10957;50.968;6.828;2022-07-05T20:23:17;18.30;1.00
21590;DHT22;10957;50.968;6.828;2022-07-05T20:28:18;18.10;1.00
21590;DHT22;10957;50.968;6.828;2022-07-05T20:33:18;18.00;1.00
21590;DHT22;10957;50.968;6.828;2022-07-05T20:38:21;17.80;1.00
21590;DHT22;10957;50.968;6.828;2022-07-05T20:43:22;17.70;1.00
21590;DHT22;10957;50.968;6.828;2022-07-05T20:48:23;17.70;1.00
21590;DHT22;10957;50.968;6.828;2022-07-05T20:53:24;17.60;1.00
21590;DHT22;10957;50.968;6.828;2022-07-05T20:58:25;17.50;1.00
21590;DHT22;10957;50.968;6.828;2022-07-05T21:03:25;17.40;1.20
21590;DHT22;10957;50.968;6.828;2022-07-05T21:08:26;17.30;2.40
21590;DHT22;10957;50.968;6.828;2022-07-05T21:13:27;17.30;3.10
21590;DHT22;10957;50.968;6.828;2022-07-05T21:18:28;17.20;3.10
21590;DHT22;10957;50.968;6.828;2022-07-05T21:23:29;17.10;3.60
21590;DHT22;10957;50.968;6.828;2022-07-05T21:28:31;17.00;3.80
21590;DHT22;10957;50.968;6.828;2022-07-05T21:33:32;16.90;3.10
21590;DHT22;10957;50.968;6.828;2022-07-05T21:38:34;16.80;4.30
21590;DHT22;10957;50.968;6.828;2022-07-05T21:43:35;16.70;5.70
21590;DHT22;10957;50.968;6.828;2022-07-05T21:48:36;16.60;6.20
21590;DHT22;10957;50.968;6.828;2022-07-05T21:53:37;16.60;7.80
21590;DHT22;10957;50.968;6.828;2022-07-05T21:58:37;16.60;9.00
21590;DHT22;10957;50.968;6.828;2022-07-05T22:04:11;16.60;10.80
21590;DHT22;10957;50.968;6.828;2022-07-05T22:09:30;16.40;13.00
21590;DHT22;10957;50.968;6.828;2022-07-05T22:14:32;16.30;15.60
21590;DHT22;10957;50.968;6.828;2022-07-05T22:19:33;15.90;17.50
21590;DHT22;10957;50.968;6.828;2022-07-05T22:24:33;15.70;19.30
21590;DHT22;10957;50.968;6.828;2022-07-05T22:29:34;15.70;27.10
21590;DHT22;10957;50.968;6.828;2022-07-05T22:34:35;15.50;32.10
21590;DHT22;10957;50.968;6.828;2022-07-05T22:39:36;15.00;35.20
21590;DHT22;10957;50.968;6.828;2022-07-05T22:44:46;15.30;38.30
21590;DHT22;10957;50.968;6.828;2022-07-05T22:49:50;15.20;39.90
21590;DHT22;10957;50.968;6.828;2022-07-05T22:54:51;14.90;43.50
21590;DHT22;10957;50.968;6.828;2022-07-05T22:59:52;14.90;51.00
21590;DHT22;10957;50.968;6.828;2022-07-05T23:04:52;14.80;53.00
21590;DHT22;10957;50.968;6.828;2022-07-05T23:09:53;14.70;57.00
21590;DHT22;10957;50.968;6.828;2022-07-05T23:14:54;14.50;57.60
21590;DHT22;10957;50.968;6.828;2022-07-05T23:19:55;14.50;60.20
21590;DHT22;10957;50.968;6.828;2022-07-05T23:24:55;14.10;66.20
21590;DHT22;10957;50.968;6.828;2022-07-05T23:29:57;13.90;71.50
21590;DHT22;10957;50.968;6.828;2022-07-05T23:34:58;14.10;73.90
21590;DHT22;10957;50.968;6.828;2022-07-05T23:39:58;14.10;68.20
21590;DHT22;10957;50.968;6.828;2022-07-05T23:44:59;14.10;66.40
21590;DHT22;10957;50.968;6.828;2022-07-05T23:50:00;14.00;70.90
21590;DHT22;10957;50.968;6.828;2022-07-05T23:55:01;13.60;71.00
